Time;durP1;ratioP1;P1;durP2;ratioP2;P2;SDS_P1;SDS_P2;PMS_P1;PMS_P2;Temp;Humidity;BMP_temperature;BMP_pressure;BME280_temperature;BME280_humidity;BME280_pressure;Samples;Min_cycle;Max_cycle;Signal;HPM_P1;HPM_P2
2024/02/06 00:00:41;;;;;;;5.05;2.67;;;8.30;99.90;;;;;;4955509;28;20077;-83
2024/02/06 00:03:06;;;;;;;10.05;4.03;;;8.20;99.90;;;;;;4972589;28;20046;-84
2024/02/06 00:05:32;;;;;;;7.30;4.15;;;8.30;99.90;;;;;;4958370;28;20379;-85
2024/02/06 00:07:57;;;;;;;5.72;3.50;;;8.30;99.90;;;;;;4938371;28;20105;-85
2024/02/06 00:10:23;;;;;;;6.40;3.30;;;8.30;99.90;;;;;;4957212;28;20037;-87
2024/02/06 00:12:48;;;;;;;6.07;2.42;;;8.30;99.90;;;;;;4942919;28;20038;-86
2024/02/06 00:15:14;;;;;;;9.35;2.22;;;8.30;99.90;;;;;;4970202;28;20081;-87
2024/02/06 00:17:40;;;;;;;5.63;3.30;;;8.30;99.90;;;;;;4956998;28;20065;-82
2024/02/06 00:20:07;;;;;;;5.32;2.45;;;8.30;99.90;;;;;;4959588;28;20438;-86
2024/02/06 00:22:32;;;;;;;10.82;3.42;;;8.30;99.90;;;;;;4977427;28;20031;-87
2024/02/06 00:24:58;;;;;;;9.88;4.30;;;8.30;99.90;;;;;;4972356;28;20073;-87
2024/02/06 00:27:24;;;;;;;4.40;2.28;;;8.30;99.90;;;;;;4976789;28;20038;-87
2024/02/06 00:29:52;;;;;;;8.45;2.83;;;8.30;99.90;;;;;;4957717;28;20407;-87
2024/02/06 00:32:19;;;;;;;12.85;4.70;;;8.30;99.90;;;;;;4973423;28;20494;-84
2024/02/06 00:34:44;;;;;;;7.05;3.30;;;8.30;99.90;;;;;;4986899;28;20073;-87
2024/02/06 00:37:10;;;;;;;5.88;2.72;;;8.30;99.90;;;;;;4976334;28;20066;-87
2024/02/06 00:39:35;;;;;;;6.90;3.78;;;8.40;99.90;;;;;;4944537;28;20101;-85
2024/02/06 00:42:01;;;;;;;4.80;2.17;;;8.30;99.90;;;;;;4974098;28;20038;-86
2024/02/06 00:44:27;;;;;;;5.60;2.90;;;8.30;99.90;;;;;;4945325;28;20069;-89
2024/02/06 00:46:53;;;;;;;11.60;2.42;;;8.30;99.90;;;;;;4962554;28;20695;-87
2024/02/06 00:49:19;;;;;;;11.68;4.50;;;8.40;99.90;;;;;;4966383;28;20026;-88
2024/02/06 00:51:44;;;;;;;5.70;2.55;;;8.40;99.90;;;;;;4954757;28;20152;-87
2024/02/06 00:54:10;;;;;;;5.88;3.22;;;8.30;99.90;;;;;;4976773;28;20030;-85
2024/02/06 00:56:35;;;;;;;10.35;4.00;;;8.30;99.90;;;;;;4947404;28;20410;-85
2024/02/06 00:59:01;;;;;;;8.10;2.72;;;8.40;99.90;;;;;;4947229;28;20038;-87
2024/02/06 01:01:27;;;;;;;7.00;2.22;;;8.30;99.90;;;;;;4947055;28;20030;-88
2024/02/06 01:03:52;;;;;;;3.20;2.42;;;8.30;99.90;;;;;;4954355;28;20418;-87
2024/02/06 01:06:19;;;;;;;2.15;1.25;;;8.30;99.90;;;;;;4976179;28;20035;-86
2024/02/06 01:08:44;;;;;;;6.90;3.08;;;8.40;99.90;;;;;;4988200;28;20058;-87
2024/02/06 01:11:10;;;;;;;10.15;3.15;;;8.40;99.90;;;;;;4974400;28;20077;-84
2024/02/06 01:13:35;;;;;;;3.55;2.25;;;8.40;99.90;;;;;;4972385;28;20049;-86
2024/02/06 01:16:03;;;;;;;8.02;3.63;;;8.40;99.90;;;;;;4962506;28;20045;-84
2024/02/06 01:18:28;;;;;;;8.25;3.20;;;8.40;99.90;;;;;;4958944;28;20027;-83
2024/02/06 01:20:54;;;;;;;6.53;3.08;;;8.40;99.90;;;;;;4974175;28;20037;-85
2024/02/06 01:23:19;;;;;;;5.20;1.73;;;8.40;99.90;;;;;;4950021;28;20050;-86
2024/02/06 01:25:45;;;;;;;10.20;2.40;;;8.40;99.90;;;;;;4971666;28;20034;-88
2024/02/06 01:28:12;;;;;;;2.47;1.63;;;8.50;99.90;;;;;;4964359;28;20060;-85
2024/02/06 01:30:37;;;;;;;7.85;3.03;;;8.50;99.90;;;;;;4961474;28;20060;-86
2024/02/06 01:33:03;;;;;;;8.85;2.70;;;8.50;99.90;;;;;;4954500;28;20482;-86
2024/02/06 01:35:29;;;;;;;3.22;2.05;;;8.50;99.90;;;;;;4961955;28;20081;-85
2024/02/06 01:37:55;;;;;;;3.75;2.50;;;8.50;99.90;;;;;;4959037;28;20117;-87
2024/02/06 01:40:20;;;;;;;7.20;2.58;;;8.50;99.90;;;;;;4945142;28;20117;-85
2024/02/06 01:42:47;;;;;;;4.93;2.25;;;8.60;99.90;;;;;;4958663;28;20133;-85
2024/02/06 01:45:13;;;;;;;9.43;3.88;;;8.60;99.90;;;;;;4961222;28;20053;-87
2024/02/06 01:47:39;;;;;;;8.70;2.80;;;8.50;99.90;;;;;;4971686;28;20058;-87
2024/02/06 01:50:05;;;;;;;8.23;4.20;;;8.60;99.90;;;;;;4941832;28;20033;-86
2024/02/06 01:52:30;;;;;;;5.35;2.17;;;8.60;99.90;;;;;;4958470;28;20038;-87
2024/02/06 01:54:56;;;;;;;6.47;2.80;;;8.60;99.90;;;;;;4963291;28;20030;-84
2024/02/06 01:57:22;;;;;;;7.18;3.28;;;8.60;99.90;;;;;;4953106;28;20030;-86
2024/02/06 01:59:47;;;;;;;7.50;2.55;;;8.60;99.90;;;;;;4970320;28;20121;-85
2024/02/06 02:02:13;;;;;;;11.88;4.35;;;8.60;99.90;;;;;;4974998;28;20128;-88
2024/02/06 02:04:38;;;;;;;6.55;3.13;;;8.60;99.90;;;;;;4957198;28;20034;-86
2024/02/06 02:07:04;;;;;;;12.75;3.47;;;8.70;99.90;;;;;;4957910;28;20113;-86
2024/02/06 02:09:30;;;;;;;5.35;2.53;;;8.70;99.90;;;;;;4971178;28;20476;-87
2024/02/06 02:11:55;;;;;;;4.93;2.38;;;8.70;99.90;;;;;;4944578;28;20038;-85
2024/02/06 02:14:21;;;;;;;12.38;3.75;;;8.70;99.90;;;;;;4955244;28;20046;-85
2024/02/06 02:16:47;;;;;;;5.07;2.97;;;8.70;99.90;;;;;;4957593;28;20030;-85
2024/02/06 02:19:12;;;;;;;10.73;3.17;;;8.70;99.90;;;;;;4974790;28;20026;-88
2024/02/06 02:21:38;;;;;;;6.38;2.38;;;8.70;99.90;;;;;;4974368;28;20196;-86
2024/02/06 02:24:04;;;;;;;12.35;3.35;;;8.80;99.90;;;;;;4954603;28;20022;-84
2024/02/06 02:26:30;;;;;;;12.60;3.88;;;8.80;99.90;;;;;;4969220;28;20129;-88
2024/02/06 02:28:55;;;;;;;8.20;3.45;;;8.70;99.90;;;;;;4956134;28;20042;-87
2024/02/06 02:31:21;;;;;;;6.80;3.22;;;8.80;99.90;;;;;;4971369;28;20435;-84
2024/02/06 02:33:47;;;;;;;10.48;3.88;;;8.80;99.90;;;;;;4970329;28;20111;-85
2024/02/06 02:36:12;;;;;;;7.53;2.78;;;8.80;99.90;;;;;;4969800;28;20030;-86
2024/02/06 02:38:40;;;;;;;9.95;2.65;;;8.80;99.90;;;;;;4970946;28;20164;-83
2024/02/06 02:41:06;;;;;;;4.82;2.25;;;8.80;99.90;;;;;;4960979;28;20678;-83
2024/02/06 02:43:31;;;;;;;6.10;2.83;;;8.80;99.90;;;;;;4959338;28;20041;-85
2024/02/06 02:45:58;;;;;;;6.97;2.10;;;8.80;99.90;;;;;;4969179;28;20073;-86
2024/02/06 02:48:23;;;;;;;7.43;2.95;;;8.80;99.90;;;;;;4956830;28;20061;-86
2024/02/06 02:50:49;;;;;;;5.32;2.35;;;8.80;99.90;;;;;;4957249;28;20035;-86
2024/02/06 02:53:14;;;;;;;10.82;3.50;;;8.80;99.90;;;;;;4976367;28;20031;-86
2024/02/06 02:55:40;;;;;;;13.75;4.07;;;8.80;99.90;;;;;;4972707;28;20064;-86
2024/02/06 02:58:05;;;;;;;8.32;2.55;;;8.80;99.90;;;;;;4946302;28;20048;-83
2024/02/06 03:00:33;;;;;;;7.68;2.92;;;8.80;99.90;;;;;;4972362;28;20086;-86
2024/02/06 03:02:59;;;;;;;6.93;2.58;;;8.80;99.90;;;;;;4953749;28;20043;-87
2024/02/06 03:05:24;;;;;;;4.25;2.17;;;8.90;99.90;;;;;;4947623;28;20045;-85
2024/02/06 03:07:50;;;;;;;9.32;2.60;;;8.90;99.90;;;;;;4973703;28;20041;-87
2024/02/06 03:10:15;;;;;;;2.65;1.42;;;8.90;99.90;;;;;;4970356;28;20081;-86
2024/02/06 03:12:41;;;;;;;4.63;2.22;;;8.90;99.90;;;;;;4955568;28;20034;-84
2024/02/06 03:15:07;;;;;;;7.05;1.63;;;8.90;99.90;;;;;;4956385;28;20259;-83
2024/02/06 03:17:32;;;;;;;3.13;1.63;;;8.90;99.90;;;;;;4939648;28;20494;-84
2024/02/06 03:19:58;;;;;;;5.30;2.50;;;8.90;99.90;;;;;;4974715;28;20039;-87
2024/02/06 03:22:26;;;;;;;6.80;3.70;;;8.90;99.90;;;;;;4990557;28;20070;-87
2024/02/06 03:24:52;;;;;;;8.95;3.17;;;8.90;99.90;;;;;;4946144;28;20038;-87
2024/02/06 03:27:17;;;;;;;5.93;2.45;;;8.90;99.90;;;;;;4967477;28;20398;-86
2024/02/06 03:29:43;;;;;;;4.20;2.00;;;8.90;99.90;;;;;;4989702;28;20053;-86
2024/02/06 03:32:09;;;;;;;5.05;2.25;;;8.90;99.90;;;;;;4969988;28;20458;-86
2024/02/06 03:34:35;;;;;;;7.13;1.83;;;9.00;99.90;;;;;;4938059;28;20039;-87
2024/02/06 03:37:00;;;;;;;1.85;1.33;;;8.90;99.90;;;;;;4942690;28;20068;-87
2024/02/06 03:39:26;;;;;;;4.57;1.60;;;8.90;99.90;;;;;;4940744;28;20038;-86
2024/02/06 03:41:52;;;;;;;10.13;3.00;;;8.90;99.90;;;;;;4966500;28;20033;-84
2024/02/06 03:44:18;;;;;;;6.05;1.95;;;9.00;99.90;;;;;;4942864;28;20034;-87
2024/02/06 03:46:43;;;;;;;4.55;1.65;;;9.00;99.90;;;;;;4949425;28;20038;-87
2024/02/06 03:49:09;;;;;;;9.73;1.50;;;9.00;99.90;;;;;;4953157;28;20117;-86
2024/02/06 03:51:34;;;;;;;9.45;1.98;;;9.00;99.90;;;;;;4954962;28;20061;-85
2024/02/06 03:54:00;;;;;;;6.20;2.58;;;9.00;99.90;;;;;;4967320;28;20442;-88
2024/02/06 03:56:26;;;;;;;6.40;2.03;;;9.00;99.90;;;;;;4956623;28;20422;-86
2024/02/06 03:58:51;;;;;;;6.00;2.25;;;9.00;99.90;;;;;;4958857;28;20752;-87
2024/02/06 04:01:17;;;;;;;8.52;2.17;;;9.00;99.90;;;;;;4970475;28;20084;-86
2024/02/06 04:03:43;;;;;;;8.20;2.42;;;9.00;99.90;;;;;;4952605;28;20062;-86
2024/02/06 04:06:12;;;;;;;12.02;2.65;;;9.10;99.90;;;;;;4928723;28;20027;-85
2024/02/06 04:08:38;;;;;;;12.82;4.05;;;9.10;99.90;;;;;;4971680;28;20595;-86
2024/02/06 04:11:04;;;;;;;4.55;2.88;;;9.10;99.90;;;;;;4956226;28;20108;-85
2024/02/06 04:13:30;;;;;;;5.53;2.13;;;9.10;99.90;;;;;;4970907;28;20035;-84
2024/02/06 04:15:55;;;;;;;5.70;1.98;;;9.10;99.90;;;;;;4954388;28;20030;-85
2024/02/06 04:18:21;;;;;;;6.35;2.95;;;9.10;99.90;;;;;;4952338;28;20085;-86
2024/02/06 04:20:46;;;;;;;7.65;2.53;;;9.00;99.90;;;;;;4929163;28;20042;-85
2024/02/06 04:23:12;;;;;;;8.27;2.08;;;9.10;99.90;;;;;;4953541;28;20117;-85
2024/02/06 04:25:38;;;;;;;4.20;1.92;;;9.10;99.90;;;;;;4965102;28;20109;-87
2024/02/06 04:28:04;;;;;;;4.07;2.10;;;9.20;99.90;;;;;;4950406;28;20979;-86
2024/02/06 04:30:30;;;;;;;8.90;3.17;;;9.10;99.90;;;;;;4939623;28;20547;-87
2024/02/06 04:32:55;;;;;;;2.97;1.58;;;9.10;99.90;;;;;;4960543;28;20134;-86
2024/02/06 04:35:21;;;;;;;8.10;2.45;;;9.10;99.90;;;;;;4950013;28;20549;-82
2024/02/06 04:37:46;;;;;;;5.97;2.30;;;9.10;99.90;;;;;;4939737;28;20057;-83
2024/02/06 04:40:12;;;;;;;10.07;3.47;;;9.10;99.90;;;;;;4972073;28;20046;-86
2024/02/06 04:42:38;;;;;;;6.93;2.33;;;9.10;99.90;;;;;;4952031;28;20573;-85
2024/02/06 04:45:06;;;;;;;7.50;3.10;;;9.10;99.90;;;;;;4966547;28;20091;-87
2024/02/06 04:47:32;;;;;;;6.63;3.03;;;9.10;99.90;;;;;;4971687;28;20094;-87
2024/02/06 04:49:58;;;;;;;3.97;2.88;;;9.10;99.90;;;;;;4967618;28;20039;-86
2024/02/06 04:52:24;;;;;;;8.73;2.45;;;9.10;99.90;;;;;;4969888;28;20529;-87
2024/02/06 04:54:50;;;;;;;4.88;1.75;;;9.20;99.90;;;;;;4965066;28;20184;-87
2024/02/06 04:57:15;;;;;;;6.78;2.85;;;9.10;99.90;;;;;;4952117;28;20037;-86
2024/02/06 04:59:41;;;;;;;6.95;2.65;;;9.10;99.90;;;;;;4971523;28;20031;-85
2024/02/06 05:02:08;;;;;;;4.40;1.60;;;9.10;99.90;;;;;;4967433;28;20433;-87
2024/02/06 05:04:33;;;;;;;11.50;2.05;;;9.10;99.90;;;;;;4970177;28;20057;-85
2024/02/06 05:06:59;;;;;;;4.45;1.77;;;9.10;99.90;;;;;;4938557;28;20038;-84
2024/02/06 05:09:25;;;;;;;5.35;1.90;;;9.10;99.90;;;;;;4950612;28;20183;-86
2024/02/06 05:11:51;;;;;;;7.00;2.22;;;9.10;99.90;;;;;;4956194;28;20074;-84
2024/02/06 05:14:16;;;;;;;10.57;3.22;;;9.10;99.90;;;;;;4960045;28;20517;-87
2024/02/06 05:16:42;;;;;;;10.40;2.17;;;9.10;99.90;;;;;;4967146;28;20114;-87
2024/02/06 05:19:13;;;;;;;5.40;2.13;;;9.20;99.90;;;;;;4969296;28;20114;-86
2024/02/06 05:21:41;;;;;;;6.65;2.17;;;9.20;99.90;;;;;;4973393;28;20030;-87
2024/02/06 05:24:08;;;;;;;7.00;2.78;;;9.20;99.90;;;;;;4956322;28;20038;-87
2024/02/06 05:26:33;;;;;;;6.88;2.65;;;9.10;99.90;;;;;;4941410;28;20068;-86
2024/02/06 05:28:59;;;;;;;12.30;2.88;;;9.10;99.90;;;;;;4961112;28;20030;-87
2024/02/06 05:31:25;;;;;;;4.57;1.70;;;9.20;99.90;;;;;;4956381;28;20035;-85
2024/02/06 05:33:50;;;;;;;8.30;2.17;;;9.20;99.90;;;;;;4949145;28;20034;-85
2024/02/06 05:36:16;;;;;;;9.30;3.00;;;9.10;99.90;;;;;;4938091;28;20050;-86
2024/02/06 05:38:41;;;;;;;5.05;2.30;;;9.10;99.90;;;;;;4953634;28;21357;-86
2024/02/06 05:41:11;;;;;;;9.27;2.35;;;9.10;99.90;;;;;;4968026;28;20026;-84
2024/02/06 05:43:37;;;;;;;6.25;2.80;;;9.10;99.90;;;;;;4969064;28;20058;-87
2024/02/06 05:46:04;;;;;;;9.32;2.67;;;9.10;99.90;;;;;;4957775;28;20127;-86
2024/02/06 05:48:29;;;;;;;5.60;2.28;;;9.10;99.90;;;;;;4968707;28;20562;-85
2024/02/06 05:50:55;;;;;;;7.82;2.83;;;9.00;99.90;;;;;;4929420;28;20112;-86
2024/02/06 05:53:21;;;;;;;3.10;2.00;;;9.00;99.90;;;;;;4965464;28;20052;-86
2024/02/06 05:55:46;;;;;;;3.75;2.53;;;9.10;99.90;;;;;;4954468;28;20043;-86
2024/02/06 05:58:12;;;;;;;7.35;2.92;;;9.10;99.90;;;;;;4968965;28;20034;-87
2024/02/06 06:00:38;;;;;;;5.30;2.15;;;9.10;99.90;;;;;;4973831;28;20031;-85
2024/02/06 06:03:04;;;;;;;5.43;2.97;;;9.10;99.90;;;;;;4942161;28;20704;-86
2024/02/06 06:05:30;;;;;;;7.18;3.65;;;9.10;99.90;;;;;;4965482;28;20034;-86
2024/02/06 06:07:56;;;;;;;7.00;3.63;;;9.10;99.90;;;;;;4945090;28;20045;-85
2024/02/06 06:10:21;;;;;;;4.53;2.47;;;9.20;99.90;;;;;;4956200;28;20085;-86
2024/02/06 06:12:47;;;;;;;6.32;2.13;;;9.10;99.90;;;;;;4965214;28;20026;-85
2024/02/06 06:15:13;;;;;;;9.57;2.45;;;9.10;99.90;;;;;;4964883;28;20034;-87
2024/02/06 06:17:38;;;;;;;6.05;2.60;;;9.20;99.90;;;;;;4952633;28;20061;-86
2024/02/06 06:20:05;;;;;;;8.70;3.35;;;9.20;99.90;;;;;;4971467;28;20058;-83
2024/02/06 06:22:31;;;;;;;6.40;3.05;;;9.10;99.90;;;;;;4955980;28;20562;-84
2024/02/06 06:24:56;;;;;;;17.55;3.83;;;9.20;99.90;;;;;;4953382;28;20122;-87
2024/02/06 06:27:22;;;;;;;10.43;3.92;;;9.10;99.90;;;;;;4971110;28;20470;-84
2024/02/06 06:29:48;;;;;;;10.18;2.47;;;9.20;99.90;;;;;;4943467;28;20525;-86
2024/02/06 06:32:13;;;;;;;11.88;4.50;;;9.20;99.90;;;;;;4973955;28;20036;-86
2024/02/06 06:34:40;;;;;;;7.72;3.03;;;9.20;99.90;;;;;;4945143;28;20088;-86
2024/02/06 06:37:06;;;;;;;11.57;3.53;;;9.30;99.90;;;;;;4957642;28;20034;-85
2024/02/06 06:39:32;;;;;;;9.65;3.80;;;9.30;99.90;;;;;;4953941;28;20404;-85
2024/02/06 06:41:58;;;;;;;6.68;3.10;;;9.20;99.90;;;;;;4972947;28;20058;-86
2024/02/06 06:44:23;;;;;;;7.55;2.67;;;9.30;99.90;;;;;;4952496;28;20452;-87
2024/02/06 06:46:50;;;;;;;10.63;2.95;;;9.30;99.90;;;;;;4963805;28;20458;-86
2024/02/06 06:49:16;;;;;;;8.00;3.65;;;9.30;99.90;;;;;;4966254;28;20570;-85
2024/02/06 06:51:42;;;;;;;5.55;2.30;;;9.30;99.90;;;;;;4968234;28;20500;-85
2024/02/06 06:54:08;;;;;;;9.85;2.67;;;9.20;99.90;;;;;;4958853;28;20041;-88
2024/02/06 06:56:34;;;;;;;12.23;4.70;;;9.30;99.90;;;;;;4967221;28;20026;-85
2024/02/06 06:58:59;;;;;;;5.60;2.67;;;9.30;99.90;;;;;;4966592;28;20109;-86
2024/02/06 07:01:25;;;;;;;7.53;2.75;;;9.30;99.90;;;;;;4939599;28;20054;-86
2024/02/06 07:03:50;;;;;;;6.82;2.75;;;9.20;99.90;;;;;;4954360;28;20062;-84
2024/02/06 07:06:17;;;;;;;6.10;2.22;;;9.30;99.90;;;;;;4953075;28;20033;-84
2024/02/06 07:08:43;;;;;;;5.35;3.03;;;9.40;99.90;;;;;;4965338;28;20061;-86
2024/02/06 07:11:09;;;;;;;4.85;3.20;;;9.30;99.90;;;;;;4940080;28;20244;-86
2024/02/06 07:13:35;;;;;;;12.13;3.50;;;9.40;99.90;;;;;;4941897;28;20113;-83
2024/02/06 07:16:01;;;;;;;6.15;2.58;;;9.40;99.90;;;;;;4958460;28;20034;-83
2024/02/06 07:18:26;;;;;;;9.73;3.33;;;9.40;99.90;;;;;;4937488;28;20034;-86
2024/02/06 07:20:52;;;;;;;8.27;2.45;;;9.30;99.90;;;;;;4968609;28;20031;-84
2024/02/06 07:23:17;;;;;;;7.85;3.13;;;9.30;99.90;;;;;;4942153;28;20109;-87
2024/02/06 07:25:43;;;;;;;8.50;2.60;;;9.30;99.90;;;;;;4952027;28;20030;-87
2024/02/06 07:28:09;;;;;;;5.03;3.55;;;9.30;99.90;;;;;;4967493;28;20040;-85
2024/02/06 07:30:34;;;;;;;4.28;2.42;;;9.30;99.90;;;;;;4968763;28;20122;-85
2024/02/06 07:33:00;;;;;;;4.35;2.63;;;9.30;99.90;;;;;;4935284;28;20482;-85
2024/02/06 07:35:25;;;;;;;8.38;3.03;;;9.30;99.90;;;;;;4950535;28;20090;-85
2024/02/06 07:37:51;;;;;;;8.02;3.63;;;9.30;99.90;;;;;;4971560;28;20490;-86
2024/02/06 07:40:16;;;;;;;2.85;2.08;;;9.30;99.90;;;;;;4951175;28;20030;-85
2024/02/06 07:42:43;;;;;;;6.55;2.53;;;9.30;99.90;;;;;;4955878;28;20031;-86
2024/02/06 07:45:09;;;;;;;13.27;4.53;;;9.30;99.90;;;;;;4933773;28;20484;-85
2024/02/06 07:47:34;;;;;;;12.88;5.15;;;9.40;99.90;;;;;;4966477;28;20045;-84
2024/02/06 07:50:00;;;;;;;7.13;2.88;;;9.30;99.90;;;;;;4970614;28;20040;-86
2024/02/06 07:52:26;;;;;;;5.85;2.50;;;9.30;99.90;;;;;;4939039;28;20037;-84
2024/02/06 07:54:52;;;;;;;8.88;3.53;;;9.40;99.90;;;;;;4968188;28;20026;-84
2024/02/06 07:57:17;;;;;;;11.68;4.53;;;9.40;99.90;;;;;;4964509;28;20478;-86
2024/02/06 07:59:43;;;;;;;4.95;3.38;;;9.40;99.90;;;;;;4965636;28;20058;-85
2024/02/06 08:02:08;;;;;;;8.68;2.67;;;9.40;99.90;;;;;;4966741;28;20030;-85
2024/02/06 08:04:34;;;;;;;8.73;3.40;;;9.40;99.90;;;;;;4969175;28;20037;-86
2024/02/06 08:06:59;;;;;;;7.15;2.75;;;9.50;99.90;;;;;;4970092;28;20042;-85
2024/02/06 08:09:25;;;;;;;7.93;2.95;;;9.40;99.90;;;;;;4952654;28;20030;-84
2024/02/06 08:11:51;;;;;;;11.60;3.05;;;9.40;99.90;;;;;;4954493;28;20042;-83
2024/02/06 08:14:17;;;;;;;8.88;4.65;;;9.50;99.90;;;;;;4967785;28;20521;-82
2024/02/06 08:16:42;;;;;;;8.85;2.05;;;9.50;99.90;;;;;;4954050;28;20022;-85
2024/02/06 08:19:08;;;;;;;7.82;3.30;;;9.60;99.90;;;;;;4937134;28;20494;-82
2024/02/06 08:21:35;;;;;;;4.93;2.28;;;9.50;99.90;;;;;;4953281;28;20035;-85
2024/02/06 08:24:00;;;;;;;10.93;3.63;;;9.50;99.90;;;;;;4956419;28;20034;-85
2024/02/06 08:26:26;;;;;;;4.53;2.33;;;9.50;99.90;;;;;;4951030;28;20027;-84
2024/02/06 08:28:52;;;;;;;8.52;3.03;;;9.50;99.90;;;;;;4937027;28;20550;-84
2024/02/06 08:31:22;;;;;;;9.25;3.25;;;9.60;99.90;;;;;;4966919;28;20113;-84
2024/02/06 08:33:49;;;;;;;6.28;2.35;;;9.60;99.90;;;;;;4969124;28;20031;-87
2024/02/06 08:36:15;;;;;;;7.75;2.80;;;9.60;99.90;;;;;;4952137;28;20085;-85
2024/02/06 08:38:41;;;;;;;12.75;3.20;;;9.60;99.90;;;;;;4937736;28;20439;-85
2024/02/06 08:41:06;;;;;;;13.38;3.85;;;9.60;99.90;;;;;;4970294;28;20394;-85
2024/02/06 08:43:32;;;;;;;6.50;2.55;;;9.60;99.90;;;;;;4955836;28;20043;-85
2024/02/06 08:45:58;;;;;;;3.97;2.50;;;9.60;99.90;;;;;;4955375;28;20184;-84
2024/02/06 08:48:24;;;;;;;10.80;4.18;;;9.70;99.90;;;;;;4940403;28;20524;-85
2024/02/06 08:50:50;;;;;;;6.65;1.98;;;9.70;99.90;;;;;;4986119;28;20030;-87
2024/02/06 08:53:16;;;;;;;9.10;3.50;;;9.80;99.90;;;;;;4953940;28;20113;-84
2024/02/06 08:55:43;;;;;;;7.25;2.90;;;9.70;99.90;;;;;;4953620;28;20031;-86
2024/02/06 08:58:10;;;;;;;13.02;2.55;;;9.80;99.90;;;;;;4988699;28;20048;-83
2024/02/06 09:00:36;;;;;;;12.30;3.22;;;9.80;99.90;;;;;;4984396;28;20038;-83
2024/02/06 09:03:02;;;;;;;9.60;3.22;;;9.80;99.90;;;;;;4955027;28;20043;-85
2024/02/06 09:05:28;;;;;;;8.77;3.08;;;9.80;99.90;;;;;;4955068;28;20069;-84
2024/02/06 09:07:54;;;;;;;5.40;2.70;;;9.80;99.90;;;;;;4954727;28;20493;-83
2024/02/06 09:10:20;;;;;;;8.13;3.00;;;9.90;99.90;;;;;;4970076;28;20034;-85
2024/02/06 09:12:45;;;;;;;13.50;2.90;;;9.90;99.90;;;;;;4956017;28;20053;-84
2024/02/06 09:15:11;;;;;;;7.90;2.22;;;9.90;99.90;;;;;;4954614;28;20133;-84
2024/02/06 09:17:37;;;;;;;17.23;3.65;;;9.90;99.90;;;;;;4974816;28;20061;-84
2024/02/06 09:20:02;;;;;;;14.35;3.20;;;9.90;99.90;;;;;;4942346;28;20402;-83
2024/02/06 09:22:28;;;;;;;3.90;1.77;;;10.00;99.90;;;;;;4956522;28;20589;-86
2024/02/06 09:24:53;;;;;;;9.30;2.95;;;10.00;99.90;;;;;;4955168;28;20038;-86
2024/02/06 09:27:19;;;;;;;14.52;3.38;;;10.00;99.90;;;;;;4956312;28;20038;-84
2024/02/06 09:29:45;;;;;;;5.68;2.35;;;10.00;99.90;;;;;;4969671;28;20077;-84
2024/02/06 09:32:10;;;;;;;9.52;3.38;;;10.10;99.90;;;;;;4937164;28;20034;-85
2024/02/06 09:34:36;;;;;;;6.80;1.88;;;10.00;99.90;;;;;;4959314;28;20461;-82
2024/02/06 09:37:01;;;;;;;7.95;2.72;;;10.10;99.90;;;;;;4956827;28;20085;-84
2024/02/06 09:39:27;;;;;;;14.68;3.17;;;10.10;99.90;;;;;;4937890;28;20045;-84
2024/02/06 09:41:52;;;;;;;9.40;2.90;;;10.10;99.90;;;;;;4957243;28;20041;-85
2024/02/06 09:44:18;;;;;;;8.55;3.78;;;10.10;99.90;;;;;;4973683;28;20141;-84
2024/02/06 09:46:49;;;;;;;7.15;2.63;;;10.10;99.90;;;;;;4955174;28;20406;-85
2024/02/06 09:49:17;;;;;;;5.70;2.58;;;10.00;99.90;;;;;;4948870;28;20436;-83
2024/02/06 09:51:42;;;;;;;5.38;3.00;;;10.00;99.90;;;;;;4970376;28;20061;-86
2024/02/06 09:54:08;;;;;;;11.48;3.25;;;10.00;99.90;;;;;;4962496;28;20027;-85
2024/02/06 09:56:34;;;;;;;7.57;3.05;;;10.00;99.90;;;;;;4927651;28;20030;-84
2024/02/06 09:59:05;;;;;;;7.97;2.70;;;9.90;99.90;;;;;;4957961;28;20088;-84
2024/02/06 10:01:31;;;;;;;9.65;3.28;;;9.90;99.90;;;;;;4955930;28;20054;-85
2024/02/06 10:03:56;;;;;;;10.57;4.40;;;9.90;99.90;;;;;;4951926;28;20075;-84
2024/02/06 10:06:22;;;;;;;4.70;2.55;;;9.90;99.90;;;;;;4953177;28;20034;-85
2024/02/06 10:08:49;;;;;;;10.95;3.70;;;9.90;99.90;;;;;;4937832;28;20039;-84
2024/02/06 10:11:15;;;;;;;6.90;3.30;;;9.90;99.90;;;;;;4940781;28;20038;-85
2024/02/06 10:13:41;;;;;;;11.02;3.63;;;9.90;99.90;;;;;;4944403;28;20087;-84
2024/02/06 10:16:07;;;;;;;19.25;5.72;;;9.90;99.90;;;;;;4957335;28;20734;-85
2024/02/06 10:18:32;;;;;;;5.82;3.25;;;9.90;99.90;;;;;;4968453;28;20038;-84
2024/02/06 10:21:01;;;;;;;6.18;3.60;;;9.90;99.90;;;;;;4939988;28;20061;-82
2024/02/06 10:23:27;;;;;;;15.18;3.33;;;9.90;99.90;;;;;;4954697;28;20065;-84
2024/02/06 10:26:02;;;;;;;11.68;4.82;;;9.90;99.90;;;;;;4951877;28;20026;-85
2024/02/06 10:28:27;;;;;;;13.80;3.43;;;10.00;99.90;;;;;;4966731;28;20045;-85
2024/02/06 10:30:54;;;;;;;10.32;2.88;;;10.00;99.90;;;;;;4968930;28;20034;-83
2024/02/06 10:33:20;;;;;;;5.53;2.92;;;10.00;99.90;;;;;;4970496;28;20030;-85
2024/02/06 10:35:45;;;;;;;8.40;3.40;;;10.00;99.90;;;;;;4942331;28;20529;-85
2024/02/06 10:38:14;;;;;;;12.18;5.45;;;9.90;99.90;;;;;;4966166;28;20112;-83
2024/02/06 10:40:41;;;;;;;8.68;3.92;;;9.80;99.90;;;;;;4941646;28;20625;-85
2024/02/06 10:43:10;;;;;;;13.88;3.45;;;9.70;99.90;;;;;;4954848;28;20044;-85
2024/02/06 10:45:35;;;;;;;13.95;4.68;;;9.80;99.90;;;;;;4969151;28;20402;-85
2024/02/06 10:48:04;;;;;;;15.32;4.53;;;9.80;99.90;;;;;;4954623;28;20069;-83
2024/02/06 10:50:30;;;;;;;10.07;3.00;;;9.80;99.90;;;;;;4969252;28;20049;-86
2024/02/06 10:52:56;;;;;;;9.18;4.32;;;9.70;99.90;;;;;;4956829;28;20060;-85
2024/02/06 10:55:22;;;;;;;6.32;3.40;;;9.80;99.90;;;;;;4952901;28;20081;-86
2024/02/06 10:57:47;;;;;;;12.00;3.42;;;9.80;99.90;;;;;;4972020;28;20038;-85
2024/02/06 11:00:17;;;;;;;7.85;3.72;;;9.80;99.90;;;;;;4957824;28;20149;-85
2024/02/06 11:02:43;;;;;;;11.63;4.25;;;9.80;99.90;;;;;;4968510;28;20035;-85
2024/02/06 11:05:39;;;;;;;10.95;3.90;;;9.80;99.90;;;;;;4944283;28;20058;-85
2024/02/06 11:08:15;;;;;;;9.18;2.88;;;9.80;99.90;;;;;;4983373;28;20525;-85
2024/02/06 11:10:58;;;;;;;14.75;5.10;;;9.90;99.90;;;;;;4946337;28;20037;-83
2024/02/06 11:13:38;;;;;;;10.43;2.75;;;9.90;99.90;;;;;;4952477;28;20069;-87
2024/02/06 11:16:05;;;;;;;13.35;4.13;;;9.90;99.90;;;;;;4967076;28;20034;-85
2024/02/06 11:18:44;;;;;;;14.68;3.65;;;9.90;99.90;;;;;;4952151;28;20038;-83
2024/02/06 11:21:10;;;;;;;7.05;3.13;;;9.90;99.90;;;;;;4969541;28;20045;-85
2024/02/06 11:23:36;;;;;;;7.15;3.78;;;10.00;99.90;;;;;;4952272;28;20396;-86
2024/02/06 11:26:02;;;;;;;5.38;2.97;;;10.00;99.90;;;;;;4957764;28;20122;-85
2024/02/06 11:28:28;;;;;;;5.70;2.97;;;10.10;99.90;;;;;;4960396;28;20033;-84
2024/02/06 11:30:59;;;;;;;4.10;2.38;;;10.10;99.90;;;;;;4990342;28;20081;-84
2024/02/06 11:33:30;;;;;;;6.38;3.28;;;10.00;99.90;;;;;;4949819;28;20039;-86
2024/02/06 11:36:09;;;;;;;9.35;2.85;;;10.10;99.90;;;;;;4938601;28;20399;-86
2024/02/06 11:38:35;;;;;;;5.53;3.40;;;10.10;99.90;;;;;;4957171;28;20430;-86
2024/02/06 11:41:11;;;;;;;9.77;4.35;;;10.10;99.90;;;;;;4949941;28;20038;-84
2024/02/06 11:43:37;;;;;;;6.72;3.78;;;10.10;99.90;;;;;;4952284;28;20041;-85
2024/02/06 11:46:03;;;;;;;14.45;5.00;;;10.10;99.90;;;;;;4968736;28;20034;-86
2024/02/06 11:48:28;;;;;;;8.07;2.88;;;10.10;99.90;;;;;;4952366;28;20077;-86
2024/02/06 11:50:55;;;;;;;7.70;4.22;;;10.00;99.90;;;;;;4957638;28;20046;-86
2024/02/06 11:53:27;;;;;;;7.53;3.63;;;10.00;99.90;;;;;;4940627;28;20031;-87
2024/02/06 11:55:59;;;;;;;6.75;3.38;;;10.00;99.90;;;;;;4954541;28;20048;-87
2024/02/06 11:58:25;;;;;;;7.97;3.85;;;10.00;99.90;;;;;;4937974;28;20029;-87
2024/02/06 12:00:55;;;;;;;9.13;4.10;;;10.00;99.90;;;;;;4952789;28;20038;-84
2024/02/06 12:03:22;;;;;;;9.73;4.18;;;10.00;99.90;;;;;;4970948;28;20040;-87
2024/02/06 12:05:47;;;;;;;14.35;4.50;;;9.80;99.90;;;;;;4952724;28;20039;-85
2024/02/06 12:08:19;;;;;;;15.35;5.60;;;9.90;99.90;;;;;;4951298;28;20077;-86
2024/02/06 12:10:45;;;;;;;14.18;4.88;;;9.90;99.90;;;;;;4956229;28;20045;-88
2024/02/06 12:13:11;;;;;;;13.50;3.88;;;9.90;99.90;;;;;;4951616;28;20526;-85
2024/02/06 12:15:37;;;;;;;7.75;3.22;;;9.90;99.90;;;;;;4965968;28;20030;-87
2024/02/06 12:18:06;;;;;;;8.88;3.67;;;9.90;99.90;;;;;;4957521;28;20030;-86
2024/02/06 12:20:33;;;;;;;11.23;4.45;;;9.90;99.90;;;;;;4941528;28;20030;-87
2024/02/06 12:23:08;;;;;;;6.45;3.30;;;9.90;99.90;;;;;;4954822;28;20043;-86
2024/02/06 12:25:40;;;;;;;10.18;5.45;;;9.90;99.90;;;;;;4956779;28;20042;-87
2024/02/06 12:28:16;;;;;;;8.20;3.97;;;9.90;99.90;;;;;;4964963;28;20039;-86
2024/02/06 12:30:45;;;;;;;7.82;3.78;;;9.90;99.90;;;;;;4958390;28;20501;-82
2024/02/06 12:33:11;;;;;;;9.88;4.35;;;10.00;99.90;;;;;;4987316;28;20030;-86
2024/02/06 12:35:37;;;;;;;6.43;3.88;;;10.00;99.90;;;;;;4940513;28;20043;-85
2024/02/06 12:38:03;;;;;;;10.98;4.30;;;10.00;99.90;;;;;;4939322;28;20508;-86
2024/02/06 12:40:29;;;;;;;10.52;4.07;;;10.00;99.90;;;;;;4938846;28;20038;-84
2024/02/06 12:42:59;;;;;;;8.60;2.97;;;10.10;99.90;;;;;;4966335;28;20450;-84
2024/02/06 12:45:25;;;;;;;11.48;3.33;;;10.00;99.90;;;;;;4940609;28;20058;-86
2024/02/06 12:47:53;;;;;;;12.60;6.05;;;10.10;99.90;;;;;;4966588;28;20069;-85